SYD weather

Sydney Kingsford Smith International Airport
Sydney, New South Wales, Australia

Public forecast

Using degrees Celsius for public forecast. Weather courtesy of forecast.io.

METAR (pilot weather report)

Retrieved 2019/04/23 09:30 UTC (2 minutes ago):

YSSY 230930Z 12006KT 9999 FEW025 SCT075 BKN300 21/19 Q1026 NOSIG

TAF (pilot weather forecast)

Retrieved 2019/04/23 06:00 UTC (4 hours ago):

TAF YSSY 230502Z 2306/2412 12008KT 9999 SCT025 FM231000 07008KT 9999 SCT025 FM231600 29005KT 9999 SCT030 FM240200 15006KT 9999 SCT035 FM240500 05008KT 9999 FEW035